G. Unger Vetlesen — JXQR — position and weather

sailwx.info

Track history (hours):
 
Tides and Currents Weather Stations Pressure Air Temp Water Temp Dewpoint Dewpoint Depression Visibility Wind Speed Wind Dir Waves Ship Positions

G. Unger Vetlesen

Last reported at 2015-May-08 03:07 UTC. Time now 2015-Jul-03 06:13 UTC.
Position N 63°36' E 009°26'.
Warning: this ship's position is 56 days out of date.

Length 23 m; draft 3.2 m.

Type: Pleasure craft. MMSI: 257267500.

Date/timePositionNaut miles runAvg speedWind from/ knotsBaromVisibWave heightAir tempDewpointWater temp
2015-May-08 03:07N 63°36' E 009°26'9 8.3
2015-May-08 02:05N 63°44' E 009°32'72 8.3
2015-May-07 17:21N 64°45' E 010°60'7 8.7
2015-May-07 16:33N 64°50' E 011°11'9 9.0
2015-May-07 15:33N 64°56' E 011°26'9 8.6
2015-May-07 14:33N 65°02' E 011°42'9 8.7
2015-May-07 13:33N 65°10' E 011°50'9 8.4
2015-May-07 12:31N 65°18' E 011°59'108 8.3
2015-May-06 23:31N 66°58' E 013°36'8 8.2
2015-May-06 22:32N 67°03' E 013°52'8 7.8
2015-May-06 21:34N 67°09' E 014°03'8 8.5
2015-May-06 20:34N 67°16' E 014°16'3 2.5
2015-May-06 19:33N 67°17' E 014°22'0 0.0
2015-May-06 18:33N 67°17' E 014°22'0 0.0
2015-May-06 17:31N 67°17' E 014°22'0 0.0
2015-May-06 16:31N 67°17' E 014°22'0 0.0
2015-May-06 15:32N 67°17' E 014°22'0 0.0
2015-May-06 14:33N 67°17' E 014°22'0 0.0
2015-May-06 13:33N 67°17' E 014°22'0 0.0
2015-May-06 12:31N 67°17' E 014°22'0 0.0
2015-May-06 11:32N 67°17' E 014°22'0 0.0
2015-May-06 10:32N 67°17' E 014°22'0 0.0
2015-May-06 09:33N 67°17' E 014°22'0 0.0
2015-May-06 08:31N 67°17' E 014°22'0 0.0
2015-May-06 07:31N 67°17' E 014°22'0 0.0
2015-May-06 06:34N 67°17' E 014°22'0 0.0
2015-May-06 05:31N 67°17' E 014°22'0 0.0
2015-May-06 04:32N 67°17' E 014°22'0 0.0
2015-May-06 03:33N 67°17' E 014°22'0 0.0
2015-May-06 02:31N 67°17' E 014°22'0 0.0
2015-May-06 01:31N 67°17' E 014°22'0 0.0
2015-May-06 00:32N 67°17' E 014°22'0 0.0
2015-May-05 23:33N 67°17' E 014°22'0 0.0
2015-May-05 22:33N 67°17' E 014°22'0 0.0
2015-May-05 21:31N 67°17' E 014°22'0 0.0
2015-May-05 20:32N 67°17' E 014°22'0 0.0
2015-May-05 19:30N 67°17' E 014°22'0 0.0
2015-May-05 18:33N 67°17' E 014°22'0 0.0
2015-May-05 17:31N 67°17' E 014°22'0 0.0
2015-May-05 16:32N 67°17' E 014°22'0 0.0
2015-May-05 15:32N 67°17' E 014°22'0 0.0
2015-May-05 14:33N 67°17' E 014°22'0 0.0
2015-May-05 13:32N 67°17' E 014°22'0 0.0
2015-May-05 12:33N 67°17' E 014°22'0 0.0
2015-May-05 11:33N 67°17' E 014°22'0 0.0
2015-May-05 10:31N 67°17' E 014°22'0 0.0
2015-May-05 09:32N 67°17' E 014°22'0 0.0
2015-May-05 08:32N 67°17' E 014°22'0 0.0
2015-May-05 07:33N 67°17' E 014°22'0 0.0
2015-May-05 06:34N 67°17' E 014°22'0 0.0
2015-May-05 05:31N 67°17' E 014°22'0 0.0
2015-May-05 04:29N 67°17' E 014°22'0 0.0
2015-May-05 03:33N 67°17' E 014°22'0 0.0
2015-May-05 02:33N 67°17' E 014°22'0 0.0
2015-May-05 01:31N 67°17' E 014°22'0 0.0
2015-May-05 00:32N 67°17' E 014°22'0 0.0
2015-May-04 23:32N 67°17' E 014°22'0 0.0
2015-May-04 22:33N 67°17' E 014°22'0 0.0
2015-May-04 21:31N 67°17' E 014°22'0 0.0
2015-May-04 20:31N 67°17' E 014°22'0 0.0
2015-May-04 19:32N 67°17' E 014°22'0 0.0
2015-May-04 18:33N 67°17' E 014°22'0 0.0
2015-May-04 17:33N 67°17' E 014°22'0 0.0
2015-May-04 16:31N 67°17' E 014°22'0 0.0
2015-May-04 15:32N 67°17' E 014°22'0 0.0
2015-May-04 14:32N 67°17' E 014°22'0 0.0
2015-May-04 13:33N 67°17' E 014°22'0 0.0
2015-May-04 12:31N 67°17' E 014°22'0 0.0
2015-May-04 11:31N 67°17' E 014°22'0 0.0
2015-May-04 10:32N 67°17' E 014°22'0 0.0
2015-May-04 09:33N 67°17' E 014°22'0 0.0
2015-May-04 08:30N 67°17' E 014°22'0 0.0
2015-May-04 07:31N 67°17' E 014°22'0 0.0
2015-May-04 06:32N 67°17' E 014°22'0 0.0
2015-May-04 05:32N 67°17' E 014°22'0 0.0
2015-May-04 04:33N 67°17' E 014°22'0 0.0
2015-May-04 03:31N 67°17' E 014°22'0 0.0
2015-May-04 02:31N 67°17' E 014°22'0 0.0
2015-May-04 01:32N 67°17' E 014°22'0 0.0
2015-May-04 00:33N 67°17' E 014°22'0 0.0
2015-May-03 23:33N 67°17' E 014°22'0 0.0
2015-May-03 22:31N 67°17' E 014°22'0 0.0
2015-May-03 21:32N 67°17' E 014°22'0 0.0
2015-May-03 20:32N 67°17' E 014°22'0 0.0
2015-May-03 19:33N 67°17' E 014°22'0 0.0
2015-May-03 18:31N 67°17' E 014°22'0 0.0
2015-May-03 17:31N 67°17' E 014°22'0 0.0
2015-May-03 16:32N 67°17' E 014°22'0 0.0
2015-May-03 15:33N 67°17' E 014°22'0 0.0
2015-May-03 14:33N 67°17' E 014°22'0 0.0
2015-May-03 13:31N 67°17' E 014°22'0 0.0
2015-May-03 12:32N 67°17' E 014°22'0 0.0
2015-May-03 11:32N 67°17' E 014°22'0 0.0
2015-May-03 10:33N 67°17' E 014°22'0 0.0
2015-May-03 09:31N 67°17' E 014°22'0 0.0
2015-May-03 08:31N 67°17' E 014°22'0 0.0
2015-May-03 07:32N 67°17' E 014°22'0 0.0
2015-May-03 06:33N 67°17' E 014°22'0 0.0
2015-May-03 05:33N 67°17' E 014°22'0 0.0
2015-May-03 04:31N 67°17' E 014°22'0 0.0
2015-May-03 03:32N 67°17' E 014°22'0 0.0
2015-May-03 02:33N 67°17' E 014°22'0 0.0
2015-May-03 01:33N 67°17' E 014°22'0 0.0
2015-May-03 00:31N 67°17' E 014°22'0 0.0
2015-May-02 23:31N 67°17' E 014°22'0 0.0
2015-May-02 22:32N 67°17' E 014°22'0 0.0
2015-May-02 21:33N 67°17' E 014°22'0 0.0
2015-May-02 20:33N 67°17' E 014°22'0 0.0
2015-May-02 19:31N 67°17' E 014°22'0 0.0
2015-May-02 18:32N 67°17' E 014°22'0 0.0
2015-May-02 17:32N 67°17' E 014°22'0 0.0
2015-May-02 16:33N 67°17' E 014°22'0 0.0
2015-May-02 15:31N 67°17' E 014°22'0 0.0
2015-May-02 14:31N 67°17' E 014°22'0 0.0
2015-May-02 13:32N 67°17' E 014°22'0 0.0
2015-May-02 12:33N 67°17' E 014°22'0 0.0
2015-May-02 11:30N 67°17' E 014°22'0 0.0
2015-May-02 10:31N 67°17' E 014°22'0 0.0
2015-May-02 09:32N 67°17' E 014°22'0 0.0
2015-May-02 08:32N 67°17' E 014°22'0 0.0
2015-May-02 07:33N 67°17' E 014°22'0 0.0
2015-May-02 06:31N 67°17' E 014°22'0 0.0
2015-May-02 05:31N 67°17' E 014°22'0 0.0
2015-May-02 04:32N 67°17' E 014°22'0 0.0
2015-May-02 03:33N 67°17' E 014°22'0 0.0
2015-May-02 02:33N 67°17' E 014°22'0 0.0
2015-May-02 01:31N 67°17' E 014°22'0 0.0
2015-May-02 00:32N 67°17' E 014°22'0 0.0
2015-May-01 23:33N 67°17' E 014°22'0 0.0
2015-May-01 22:33N 67°17' E 014°22'0 0.0
2015-May-01 21:31N 67°17' E 014°22'0 0.0
2015-May-01 20:32N 67°17' E 014°22'0 0.0
2015-May-01 19:32N 67°17' E 014°22'0 0.0
2015-May-01 18:33N 67°17' E 014°22'0 0.0
2015-May-01 17:34N 67°17' E 014°22'0 0.0
2015-May-01 16:31N 67°17' E 014°22'0 0.0
2015-May-01 15:32N 67°17' E 014°22'0 0.0
2015-May-01 14:33N 67°17' E 014°22'0 0.0
2015-May-01 13:33N 67°17' E 014°22'0 0.0
2015-May-01 12:31N 67°17' E 014°22'0 0.0
2015-May-01 11:29N 67°17' E 014°22'0 0.0
2015-May-01 10:32N 67°17' E 014°22'0 0.0
2015-May-01 09:33N 67°17' E 014°22'0 0.0
2015-May-01 08:33N 67°17' E 014°22'0 0.0
2015-May-01 07:33N 67°17' E 014°22'0 0.0
2015-May-01 06:31N 67°17' E 014°22'0 0.0
2015-May-01 05:29N 67°17' E 014°22'0 0.0
2015-May-01 04:32N 67°17' E 014°22'0 0.0
2015-May-01 03:33N 67°17' E 014°22'0 0.0
2015-May-01 02:28N 67°17' E 014°22'0 0.0
2015-May-01 01:31N 67°17' E 014°22'0 0.0
2015-May-01 00:32N 67°17' E 014°22'0 0.0
2015-Apr-30 23:33N 67°17' E 014°22'0 0.0
2015-Apr-30 22:33N 67°17' E 014°22'0 0.0
2015-Apr-30 21:31N 67°17' E 014°22'0 0.0
2015-Apr-30 20:32N 67°17' E 014°22'0 0.0
2015-Apr-30 19:32N 67°17' E 014°22'0 0.0
2015-Apr-30 18:33N 67°17' E 014°22'0 0.0
2015-Apr-30 17:31N 67°17' E 014°22'0 0.0
2015-Apr-30 16:31N 67°17' E 014°22'0 0.0
2015-Apr-30 15:32N 67°17' E 014°22'0 0.0
2015-Apr-30 14:33N 67°17' E 014°22'0 0.0
2015-Apr-30 13:33N 67°17' E 014°22'0 0.0
2015-Apr-30 12:31N 67°17' E 014°22'0 0.0
2015-Apr-30 11:32N 67°17' E 014°22'0 0.0
2015-Apr-30 10:32N 67°17' E 014°22'0 0.0
2015-Apr-30 09:33N 67°17' E 014°22'0 0.0
2015-Apr-30 08:31N 67°17' E 014°22'0 0.0
2015-Apr-30 07:32N 67°17' E 014°22'0 0.0
2015-Apr-30 06:32N 67°17' E 014°22'0 0.0
2015-Apr-30 05:33N 67°17' E 014°22'0 0.0
2015-Apr-30 04:34N 67°17' E 014°22'0 0.0
2015-Apr-30 03:31N 67°17' E 014°22'0 0.0
2015-Apr-30 02:32N 67°17' E 014°22'0 0.0
2015-Apr-30 01:33N 67°17' E 014°22'0 0.0
2015-Apr-30 00:33N 67°17' E 014°22'0 0.0
2015-Apr-29 23:31N 67°17' E 014°22'0 0.0
2015-Apr-29 22:32N 67°17' E 014°22'0 0.0
2015-Apr-29 21:32N 67°17' E 014°22'0 0.0
2015-Apr-29 20:33N 67°17' E 014°22'0 0.0
2015-Apr-29 19:34N 67°17' E 014°22'0 0.0
2015-Apr-29 18:31N 67°17' E 014°22'0 0.0
2015-Apr-29 17:32N 67°17' E 014°22'0 0.0
2015-Apr-29 16:33N 67°17' E 014°22'0 0.0
2015-Apr-29 15:30N 67°17' E 014°22'0 0.0
2015-Apr-29 14:31N 67°17' E 014°22'0 0.0
2015-Apr-29 13:32N 67°17' E 014°22'0 0.0
2015-Apr-29 12:32N 67°17' E 014°22'0 0.0
2015-Apr-29 11:33N 67°17' E 014°22'0 0.0
2015-Apr-29 10:31N 67°17' E 014°22'0 0.0
2015-Apr-29 09:31N 67°17' E 014°22'0 0.0
2015-Apr-29 08:32N 67°17' E 014°22'0 0.0
2015-Apr-29 07:33N 67°17' E 014°22'0 0.0
2015-Apr-29 06:33N 67°17' E 014°22'0 0.0
2015-Apr-29 05:31N 67°17' E 014°22'0 0.0
2015-Apr-29 04:32N 67°17' E 014°22'0 0.0
2015-Apr-29 03:29N 67°17' E 014°22'0 0.0
2015-Apr-29 02:33N 67°17' E 014°22'0 0.0
2015-Apr-29 01:31N 67°17' E 014°22'0 0.0
2015-Apr-29 00:31N 67°17' E 014°22'0 0.0
2015-Apr-28 23:32N 67°17' E 014°22'0 0.0
2015-Apr-28 22:31N 67°17' E 014°22'0 0.0
2015-Apr-28 21:30N 67°17' E 014°22'0 0.0
2015-Apr-28 20:33N 67°17' E 014°22'0 0.0
2015-Apr-28 19:31N 67°17' E 014°22'0 0.0
2015-Apr-28 18:32N 67°17' E 014°22'0 0.0
2015-Apr-28 17:32N 67°17' E 014°22'0 0.0
2015-Apr-28 16:33N 67°17' E 014°22'0 0.0
2015-Apr-28 15:34N 67°17' E 014°22'0 0.0
2015-Apr-28 14:31N 67°17' E 014°22'0 0.0
2015-Apr-28 13:32N 67°17' E 014°22'0 0.0
2015-Apr-28 12:33N 67°17' E 014°22'0 0.0
2015-Apr-28 11:33N 67°17' E 014°22'0 0.0
2015-Apr-28 10:31N 67°17' E 014°22'0 0.0
2015-Apr-28 09:32N 67°17' E 014°22'0 0.0
2015-Apr-28 08:32N 67°17' E 014°22'0 0.0
2015-Apr-28 07:33N 67°17' E 014°22'0 0.0
2015-Apr-28 06:34N 67°17' E 014°22'0 0.0
2015-Apr-28 05:31N 67°17' E 014°22'0 0.0
2015-Apr-28 04:32N 67°17' E 014°22'0 0.0
2015-Apr-28 03:33N 67°17' E 014°22'  
Track history (hours):
 
Tides and Currents Weather Stations Pressure Air Temp Water Temp Dewpoint Dewpoint Depression Visibility Wind Speed Wind Dir Waves Ship Positions

G. Unger Vetlesen

Last reported at 2015-May-08 03:07 UTC. Time now 2015-Jul-03 06:13 UTC.
Position N 63°36' E 009°26'.
Warning: this ship's position is 56 days out of date.

Length 23 m; draft 3.2 m.

Type: Pleasure craft. MMSI: 257267500.

Date/timePositionNaut miles runAvg speedWind from/ knotsBaromVisibWave heightAir tempDewpointWater temp
2015-May-08 03:07N 63°36' E 009°26'9 8.3
2015-May-08 02:05N 63°44' E 009°32'72 8.3
2015-May-07 17:21N 64°45' E 010°60'7 8.7
2015-May-07 16:33N 64°50' E 011°11'9 9.0
2015-May-07 15:33N 64°56' E 011°26'9 8.6
2015-May-07 14:33N 65°02' E 011°42'9 8.7
2015-May-07 13:33N 65°10' E 011°50'9 8.4
2015-May-07 12:31N 65°18' E 011°59'108 8.3
2015-May-06 23:31N 66°58' E 013°36'8 8.2
2015-May-06 22:32N 67°03' E 013°52'8 7.8
2015-May-06 21:34N 67°09' E 014°03'8 8.5
2015-May-06 20:34N 67°16' E 014°16'3 2.5
2015-May-06 19:33N 67°17' E 014°22'0 0.0
2015-May-06 18:33N 67°17' E 014°22'0 0.0
2015-May-06 17:31N 67°17' E 014°22'0 0.0
2015-May-06 16:31N 67°17' E 014°22'0 0.0
2015-May-06 15:32N 67°17' E 014°22'0 0.0
2015-May-06 14:33N 67°17' E 014°22'0 0.0
2015-May-06 13:33N 67°17' E 014°22'0 0.0
2015-May-06 12:31N 67°17' E 014°22'0 0.0
2015-May-06 11:32N 67°17' E 014°22'0 0.0
2015-May-06 10:32N 67°17' E 014°22'0 0.0
2015-May-06 09:33N 67°17' E 014°22'0 0.0
2015-May-06 08:31N 67°17' E 014°22'0 0.0
2015-May-06 07:31N 67°17' E 014°22'0 0.0
2015-May-06 06:34N 67°17' E 014°22'0 0.0
2015-May-06 05:31N 67°17' E 014°22'0 0.0
2015-May-06 04:32N 67°17' E 014°22'0 0.0
2015-May-06 03:33N 67°17' E 014°22'0 0.0
2015-May-06 02:31N 67°17' E 014°22'0 0.0
2015-May-06 01:31N 67°17' E 014°22'0 0.0
2015-May-06 00:32N 67°17' E 014°22'0 0.0
2015-May-05 23:33N 67°17' E 014°22'0 0.0
2015-May-05 22:33N 67°17' E 014°22'0 0.0
2015-May-05 21:31N 67°17' E 014°22'0 0.0
2015-May-05 20:32N 67°17' E 014°22'0 0.0
2015-May-05 19:30N 67°17' E 014°22'0 0.0
2015-May-05 18:33N 67°17' E 014°22'0 0.0
2015-May-05 17:31N 67°17' E 014°22'0 0.0
2015-May-05 16:32N 67°17' E 014°22'0 0.0
2015-May-05 15:32N 67°17' E 014°22'0 0.0
2015-May-05 14:33N 67°17' E 014°22'0 0.0
2015-May-05 13:32N 67°17' E 014°22'0 0.0
2015-May-05 12:33N 67°17' E 014°22'0 0.0
2015-May-05 11:33N 67°17' E 014°22'0 0.0
2015-May-05 10:31N 67°17' E 014°22'0 0.0
2015-May-05 09:32N 67°17' E 014°22'0 0.0
2015-May-05 08:32N 67°17' E 014°22'0 0.0
2015-May-05 07:33N 67°17' E 014°22'0 0.0
2015-May-05 06:34N 67°17' E 014°22'0 0.0
2015-May-05 05:31N 67°17' E 014°22'0 0.0
2015-May-05 04:29N 67°17' E 014°22'0 0.0
2015-May-05 03:33N 67°17' E 014°22'0 0.0
2015-May-05 02:33N 67°17' E 014°22'0 0.0
2015-May-05 01:31N 67°17' E 014°22'0 0.0
2015-May-05 00:32N 67°17' E 014°22'0 0.0
2015-May-04 23:32N 67°17' E 014°22'0 0.0
2015-May-04 22:33N 67°17' E 014°22'0 0.0
2015-May-04 21:31N 67°17' E 014°22'0 0.0
2015-May-04 20:31N 67°17' E 014°22'0 0.0
2015-May-04 19:32N 67°17' E 014°22'0 0.0
2015-May-04 18:33N 67°17' E 014°22'0 0.0
2015-May-04 17:33N 67°17' E 014°22'0 0.0
2015-May-04 16:31N 67°17' E 014°22'0 0.0
2015-May-04 15:32N 67°17' E 014°22'0 0.0
2015-May-04 14:32N 67°17' E 014°22'0 0.0
2015-May-04 13:33N 67°17' E 014°22'0 0.0
2015-May-04 12:31N 67°17' E 014°22'0 0.0
2015-May-04 11:31N 67°17' E 014°22'0 0.0
2015-May-04 10:32N 67°17' E 014°22'0 0.0
2015-May-04 09:33N 67°17' E 014°22'0 0.0
2015-May-04 08:30N 67°17' E 014°22'0 0.0
2015-May-04 07:31N 67°17' E 014°22'0 0.0
2015-May-04 06:32N 67°17' E 014°22'0 0.0
2015-May-04 05:32N 67°17' E 014°22'0 0.0
2015-May-04 04:33N 67°17' E 014°22'0 0.0
2015-May-04 03:31N 67°17' E 014°22'0 0.0
2015-May-04 02:31N 67°17' E 014°22'0 0.0
2015-May-04 01:32N 67°17' E 014°22'0 0.0
2015-May-04 00:33N 67°17' E 014°22'0 0.0
2015-May-03 23:33N 67°17' E 014°22'0 0.0
2015-May-03 22:31N 67°17' E 014°22'0 0.0
2015-May-03 21:32N 67°17' E 014°22'0 0.0
2015-May-03 20:32N 67°17' E 014°22'0 0.0
2015-May-03 19:33N 67°17' E 014°22'0 0.0
2015-May-03 18:31N 67°17' E 014°22'0 0.0
2015-May-03 17:31N 67°17' E 014°22'0 0.0
2015-May-03 16:32N 67°17' E 014°22'0 0.0
2015-May-03 15:33N 67°17' E 014°22'0 0.0
2015-May-03 14:33N 67°17' E 014°22'0 0.0
2015-May-03 13:31N 67°17' E 014°22'0 0.0
2015-May-03 12:32N 67°17' E 014°22'0 0.0
2015-May-03 11:32N 67°17' E 014°22'0 0.0
2015-May-03 10:33N 67°17' E 014°22'0 0.0
2015-May-03 09:31N 67°17' E 014°22'0 0.0
2015-May-03 08:31N 67°17' E 014°22'0 0.0
2015-May-03 07:32N 67°17' E 014°22'0 0.0
2015-May-03 06:33N 67°17' E 014°22'0 0.0
2015-May-03 05:33N 67°17' E 014°22'0 0.0
2015-May-03 04:31N 67°17' E 014°22'0 0.0
2015-May-03 03:32N 67°17' E 014°22'0 0.0
2015-May-03 02:33N 67°17' E 014°22'0 0.0
2015-May-03 01:33N 67°17' E 014°22'0 0.0
2015-May-03 00:31N 67°17' E 014°22'0 0.0
2015-May-02 23:31N 67°17' E 014°22'0 0.0
2015-May-02 22:32N 67°17' E 014°22'0 0.0
2015-May-02 21:33N 67°17' E 014°22'0 0.0
2015-May-02 20:33N 67°17' E 014°22'0 0.0
2015-May-02 19:31N 67°17' E 014°22'0 0.0
2015-May-02 18:32N 67°17' E 014°22'0 0.0
2015-May-02 17:32N 67°17' E 014°22'0 0.0
2015-May-02 16:33N 67°17' E 014°22'0 0.0
2015-May-02 15:31N 67°17' E 014°22'0 0.0
2015-May-02 14:31N 67°17' E 014°22'0 0.0
2015-May-02 13:32N 67°17' E 014°22'0 0.0
2015-May-02 12:33N 67°17' E 014°22'0 0.0
2015-May-02 11:30N 67°17' E 014°22'0 0.0
2015-May-02 10:31N 67°17' E 014°22'0 0.0
2015-May-02 09:32N 67°17' E 014°22'0 0.0
2015-May-02 08:32N 67°17' E 014°22'0 0.0
2015-May-02 07:33N 67°17' E 014°22'0 0.0
2015-May-02 06:31N 67°17' E 014°22'0 0.0
2015-May-02 05:31N 67°17' E 014°22'0 0.0
2015-May-02 04:32N 67°17' E 014°22'0 0.0
2015-May-02 03:33N 67°17' E 014°22'0 0.0
2015-May-02 02:33N 67°17' E 014°22'0 0.0
2015-May-02 01:31N 67°17' E 014°22'0 0.0
2015-May-02 00:32N 67°17' E 014°22'0 0.0
2015-May-01 23:33N 67°17' E 014°22'0 0.0
2015-May-01 22:33N 67°17' E 014°22'0 0.0
2015-May-01 21:31N 67°17' E 014°22'0 0.0
2015-May-01 20:32N 67°17' E 014°22'0 0.0
2015-May-01 19:32N 67°17' E 014°22'0 0.0
2015-May-01 18:33N 67°17' E 014°22'0 0.0
2015-May-01 17:34N 67°17' E 014°22'0 0.0
2015-May-01 16:31N 67°17' E 014°22'0 0.0
2015-May-01 15:32N 67°17' E 014°22'0 0.0
2015-May-01 14:33N 67°17' E 014°22'0 0.0
2015-May-01 13:33N 67°17' E 014°22'0 0.0
2015-May-01 12:31N 67°17' E 014°22'0 0.0
2015-May-01 11:29N 67°17' E 014°22'0 0.0
2015-May-01 10:32N 67°17' E 014°22'0 0.0
2015-May-01 09:33N 67°17' E 014°22'0 0.0
2015-May-01 08:33N 67°17' E 014°22'0 0.0
2015-May-01 07:33N 67°17' E 014°22'0 0.0
2015-May-01 06:31N 67°17' E 014°22'0 0.0
2015-May-01 05:29N 67°17' E 014°22'0 0.0
2015-May-01 04:32N 67°17' E 014°22'0 0.0
2015-May-01 03:33N 67°17' E 014°22'0 0.0
2015-May-01 02:28N 67°17' E 014°22'0 0.0
2015-May-01 01:31N 67°17' E 014°22'0 0.0
2015-May-01 00:32N 67°17' E 014°22'0 0.0
2015-Apr-30 23:33N 67°17' E 014°22'0 0.0
2015-Apr-30 22:33N 67°17' E 014°22'0 0.0
2015-Apr-30 21:31N 67°17' E 014°22'0 0.0
2015-Apr-30 20:32N 67°17' E 014°22'0 0.0
2015-Apr-30 19:32N 67°17' E 014°22'0 0.0
2015-Apr-30 18:33N 67°17' E 014°22'0 0.0
2015-Apr-30 17:31N 67°17' E 014°22'0 0.0
2015-Apr-30 16:31N 67°17' E 014°22'0 0.0
2015-Apr-30 15:32N 67°17' E 014°22'0 0.0
2015-Apr-30 14:33N 67°17' E 014°22'0 0.0
2015-Apr-30 13:33N 67°17' E 014°22'0 0.0
2015-Apr-30 12:31N 67°17' E 014°22'0 0.0
2015-Apr-30 11:32N 67°17' E 014°22'0 0.0
2015-Apr-30 10:32N 67°17' E 014°22'0 0.0
2015-Apr-30 09:33N 67°17' E 014°22'0 0.0
2015-Apr-30 08:31N 67°17' E 014°22'0 0.0
2015-Apr-30 07:32N 67°17' E 014°22'0 0.0
2015-Apr-30 06:32N 67°17' E 014°22'0 0.0
2015-Apr-30 05:33N 67°17' E 014°22'0 0.0
2015-Apr-30 04:34N 67°17' E 014°22'0 0.0
2015-Apr-30 03:31N 67°17' E 014°22'0 0.0
2015-Apr-30 02:32N 67°17' E 014°22'0 0.0
2015-Apr-30 01:33N 67°17' E 014°22'0 0.0
2015-Apr-30 00:33N 67°17' E 014°22'0 0.0
2015-Apr-29 23:31N 67°17' E 014°22'0 0.0
2015-Apr-29 22:32N 67°17' E 014°22'0 0.0
2015-Apr-29 21:32N 67°17' E 014°22'0 0.0
2015-Apr-29 20:33N 67°17' E 014°22'0 0.0
2015-Apr-29 19:34N 67°17' E 014°22'0 0.0
2015-Apr-29 18:31N 67°17' E 014°22'0 0.0
2015-Apr-29 17:32N 67°17' E 014°22'0 0.0
2015-Apr-29 16:33N 67°17' E 014°22'0 0.0
2015-Apr-29 15:30N 67°17' E 014°22'0 0.0
2015-Apr-29 14:31N 67°17' E 014°22'0 0.0
2015-Apr-29 13:32N 67°17' E 014°22'0 0.0
2015-Apr-29 12:32N 67°17' E 014°22'0 0.0
2015-Apr-29 11:33N 67°17' E 014°22'0 0.0
2015-Apr-29 10:31N 67°17' E 014°22'0 0.0
2015-Apr-29 09:31N 67°17' E 014°22'0 0.0
2015-Apr-29 08:32N 67°17' E 014°22'0 0.0
2015-Apr-29 07:33N 67°17' E 014°22'0 0.0
2015-Apr-29 06:33N 67°17' E 014°22'0 0.0
2015-Apr-29 05:31N 67°17' E 014°22'0 0.0
2015-Apr-29 04:32N 67°17' E 014°22'0 0.0
2015-Apr-29 03:29N 67°17' E 014°22'0 0.0
2015-Apr-29 02:33N 67°17' E 014°22'0 0.0
2015-Apr-29 01:31N 67°17' E 014°22'0 0.0
2015-Apr-29 00:31N 67°17' E 014°22'0 0.0
2015-Apr-28 23:32N 67°17' E 014°22'0 0.0
2015-Apr-28 22:31N 67°17' E 014°22'0 0.0
2015-Apr-28 21:30N 67°17' E 014°22'0 0.0
2015-Apr-28 20:33N 67°17' E 014°22'0 0.0
2015-Apr-28 19:31N 67°17' E 014°22'0 0.0
2015-Apr-28 18:32N 67°17' E 014°22'0 0.0
2015-Apr-28 17:32N 67°17' E 014°22'0 0.0
2015-Apr-28 16:33N 67°17' E 014°22'0 0.0
2015-Apr-28 15:34N 67°17' E 014°22'0 0.0
2015-Apr-28 14:31N 67°17' E 014°22'0 0.0
2015-Apr-28 13:32N 67°17' E 014°22'0 0.0
2015-Apr-28 12:33N 67°17' E 014°22'0 0.0
2015-Apr-28 11:33N 67°17' E 014°22'0 0.0
2015-Apr-28 10:31N 67°17' E 014°22'0 0.0
2015-Apr-28 09:32N 67°17' E 014°22'0 0.0
2015-Apr-28 08:32N 67°17' E 014°22'0 0.0
2015-Apr-28 07:33N 67°17' E 014°22'0 0.0
2015-Apr-28 06:34N 67°17' E 014°22'0 0.0
2015-Apr-28 05:31N 67°17' E 014°22'0 0.0
2015-Apr-28 04:32N 67°17' E 014°22'0 0.0
2015-Apr-28 03:33N 67°17' E 014°22'  

Dump ship's entire track history